Time;durP1;ratioP1;P1;durP2;ratioP2;P2;SDS_P1;SDS_P2;PMS_P1;PMS_P2;Temp;Humidity;BMP_temperature;BMP_pressure;BME280_temperature;BME280_humidity;BME280_pressure;Samples;Min_cycle;Max_cycle;Signal;HPM_P1;HPM_P2
2023/12/08 00:00:15;;;;;;;16.33;11.05;;;2.50;99.90;;;;;;5071848;28;20115;-70
2023/12/08 00:02:40;;;;;;;16.90;11.45;;;2.50;99.90;;;;;;5073421;28;20044;-70
2023/12/08 00:05:06;;;;;;;17.58;11.23;;;2.50;99.90;;;;;;5073337;28;20043;-70
2023/12/08 00:07:32;;;;;;;15.75;10.88;;;2.50;99.90;;;;;;5071811;28;20127;-70
2023/12/08 00:09:57;;;;;;;15.15;10.55;;;2.50;99.90;;;;;;5072059;28;20047;-70
2023/12/08 00:12:23;;;;;;;16.63;10.65;;;2.50;99.90;;;;;;5071799;28;20047;-70
2023/12/08 00:14:50;;;;;;;13.65;10.60;;;2.50;99.90;;;;;;5071830;28;20040;-70
2023/12/08 00:17:16;;;;;;;16.08;11.10;;;2.50;99.90;;;;;;5072932;28;20463;-70
2023/12/08 00:19:42;;;;;;;16.17;11.25;;;2.50;99.90;;;;;;5054948;28;20029;-70
2023/12/08 00:22:07;;;;;;;15.15;10.52;;;2.50;99.90;;;;;;5071718;28;20082;-70
2023/12/08 00:24:33;;;;;;;19.15;11.63;;;2.50;99.90;;;;;;5055230;28;20082;-70
2023/12/08 00:26:59;;;;;;;14.60;11.05;;;2.60;99.90;;;;;;5072291;28;20070;-70
2023/12/08 00:29:25;;;;;;;16.75;11.35;;;2.60;99.90;;;;;;5073089;28;20037;-70
2023/12/08 00:31:50;;;;;;;14.73;10.32;;;2.60;99.90;;;;;;5071866;28;20051;-70
2023/12/08 00:34:18;;;;;;;14.18;10.95;;;2.60;99.90;;;;;;5071896;28;20535;-70
2023/12/08 00:36:44;;;;;;;14.93;11.20;;;2.60;99.90;;;;;;5071459;28;20041;-70
2023/12/08 00:39:09;;;;;;;16.05;11.63;;;2.60;99.90;;;;;;5073080;28;20037;-70
2023/12/08 00:41:35;;;;;;;14.88;11.00;;;2.60;99.90;;;;;;5071682;28;20032;-70
2023/12/08 00:44:01;;;;;;;15.18;11.40;;;2.50;99.90;;;;;;5071482;28;20044;-70
2023/12/08 00:46:27;;;;;;;15.77;11.27;;;2.50;99.90;;;;;;5071486;28;20043;-70
2023/12/08 00:48:53;;;;;;;15.00;11.60;;;2.50;99.90;;;;;;5072632;28;20037;-70
2023/12/08 00:51:18;;;;;;;14.70;11.40;;;2.50;99.90;;;;;;5071319;28;20058;-70
2023/12/08 00:53:44;;;;;;;14.38;10.98;;;2.50;99.90;;;;;;5071645;28;20036;-70
2023/12/08 00:56:10;;;;;;;16.92;12.15;;;2.50;99.90;;;;;;5054621;28;20078;-70
2023/12/08 00:58:36;;;;;;;15.73;12.40;;;2.50;99.90;;;;;;5071640;28;20048;-70
2023/12/08 01:01:02;;;;;;;16.75;12.07;;;2.50;99.90;;;;;;5054521;28;20048;-70
2023/12/08 01:03:28;;;;;;;21.00;12.98;;;2.50;99.90;;;;;;5072852;28;20033;-70
2023/12/08 01:05:53;;;;;;;17.90;12.95;;;2.40;99.90;;;;;;5071299;28;20485;-70
2023/12/08 01:08:19;;;;;;;18.15;12.25;;;2.50;99.90;;;;;;5071264;28;20045;-70
2023/12/08 01:10:44;;;;;;;15.95;12.07;;;2.40;99.90;;;;;;5073549;28;20039;-70
2023/12/08 01:13:10;;;;;;;19.25;12.65;;;2.40;99.90;;;;;;5076408;28;20524;-70
2023/12/08 01:15:35;;;;;;;18.45;13.02;;;2.40;99.90;;;;;;5074882;28;20048;-71
2023/12/08 01:18:01;;;;;;;18.40;13.20;;;2.40;99.90;;;;;;5075867;28;20041;-70
2023/12/08 01:20:27;;;;;;;16.67;12.75;;;2.40;99.90;;;;;;5074656;28;20124;-70
2023/12/08 01:22:52;;;;;;;18.42;13.00;;;2.40;99.90;;;;;;5074871;28;20037;-70
2023/12/08 01:25:18;;;;;;;16.60;12.65;;;2.40;99.90;;;;;;5076226;28;20497;-71
2023/12/08 01:27:43;;;;;;;17.23;12.52;;;2.40;99.90;;;;;;5074602;28;20093;-70
2023/12/08 01:30:10;;;;;;;17.00;13.38;;;2.40;99.90;;;;;;5076015;28;20041;-70
2023/12/08 01:32:36;;;;;;;17.38;13.35;;;2.40;99.90;;;;;;5076852;28;20135;-70
2023/12/08 01:35:02;;;;;;;17.58;13.15;;;2.40;99.90;;;;;;5074498;28;20513;-70
2023/12/08 01:37:28;;;;;;;15.30;12.18;;;2.40;99.90;;;;;;5074554;28;20053;-70
2023/12/08 01:39:53;;;;;;;19.40;12.80;;;2.40;99.90;;;;;;5075896;28;20485;-70
2023/12/08 01:42:19;;;;;;;18.85;13.55;;;2.40;99.90;;;;;;5075987;28;20181;-70
2023/12/08 01:44:44;;;;;;;19.05;14.80;;;2.40;99.90;;;;;;5074291;28;20123;-70
2023/12/08 01:47:11;;;;;;;17.10;13.07;;;2.40;99.90;;;;;;5075837;28;20215;-70
2023/12/08 01:49:40;;;;;;;19.45;13.57;;;2.40;99.90;;;;;;5074185;28;20508;-70
2023/12/08 01:52:07;;;;;;;19.67;14.02;;;2.40;99.90;;;;;;5075696;28;20044;-70
2023/12/08 01:54:33;;;;;;;16.58;12.90;;;2.40;99.90;;;;;;5074107;28;20052;-70
2023/12/08 01:57:01;;;;;;;18.27;13.65;;;2.40;99.90;;;;;;5074149;28;20395;-70
2023/12/08 01:59:27;;;;;;;17.98;13.80;;;2.40;99.90;;;;;;5074002;28;20421;-70
2023/12/08 02:01:53;;;;;;;17.98;13.35;;;2.40;99.90;;;;;;5075514;28;20059;-70
2023/12/08 02:04:19;;;;;;;19.50;14.25;;;2.40;99.90;;;;;;5075431;28;20037;-70
2023/12/08 02:06:45;;;;;;;19.70;15.10;;;2.40;99.90;;;;;;5075394;28;20041;-70
2023/12/08 02:09:10;;;;;;;22.98;14.75;;;2.40;99.90;;;;;;5075421;28;20049;-70
2023/12/08 02:11:36;;;;;;;17.65;13.52;;;2.40;99.90;;;;;;5073756;28;20071;-70
2023/12/08 02:14:03;;;;;;;18.02;14.02;;;2.40;99.90;;;;;;5073723;28;20098;-70
2023/12/08 02:16:41;;;;;;;18.42;13.55;;;2.40;99.90;;;;;;5075180;28;20037;-70
2023/12/08 02:19:08;;;;;;;18.48;14.10;;;2.40;99.90;;;;;;5073882;28;20042;-70
2023/12/08 02:21:34;;;;;;;20.50;14.70;;;2.30;99.90;;;;;;5073401;28;20074;-70
2023/12/08 02:24:00;;;;;;;20.25;14.85;;;2.30;99.90;;;;;;5072865;28;20041;-70
2023/12/08 02:26:25;;;;;;;20.45;15.63;;;2.40;99.90;;;;;;5073517;28;20047;-70
2023/12/08 02:28:51;;;;;;;21.60;14.55;;;2.30;99.90;;;;;;5056789;28;20071;-70
2023/12/08 02:31:27;;;;;;;19.98;14.65;;;2.30;99.90;;;;;;5073363;28;20048;-70
2023/12/08 02:33:55;;;;;;;19.13;14.82;;;2.30;99.90;;;;;;5074651;28;20488;-70
2023/12/08 02:36:21;;;;;;;18.20;14.25;;;2.30;99.90;;;;;;5074749;28;20044;-70
2023/12/08 02:38:49;;;;;;;19.92;14.70;;;2.40;99.90;;;;;;5074764;28;20119;-70
2023/12/08 02:41:15;;;;;;;23.17;14.48;;;2.30;99.90;;;;;;5073182;28;20048;-70
2023/12/08 02:43:41;;;;;;;23.25;14.85;;;2.30;99.90;;;;;;5073347;28;20047;-70
2023/12/08 02:46:06;;;;;;;18.40;14.38;;;2.30;99.90;;;;;;5073123;28;20562;-70
2023/12/08 02:48:32;;;;;;;21.70;14.95;;;2.30;99.90;;;;;;5073310;28;20114;-70
2023/12/08 02:50:57;;;;;;;19.58;14.45;;;2.30;99.90;;;;;;5072896;28;20039;-70
2023/12/08 02:53:23;;;;;;;20.15;15.65;;;2.30;99.90;;;;;;5072947;28;20044;-70
2023/12/08 02:55:48;;;;;;;22.15;15.43;;;2.30;99.90;;;;;;5073240;28;20064;-70
2023/12/08 02:58:14;;;;;;;19.95;14.20;;;2.30;99.90;;;;;;5073941;28;20040;-70
2023/12/08 03:00:40;;;;;;;17.25;13.75;;;2.30;99.90;;;;;;5072744;28;20111;-70
2023/12/08 03:03:05;;;;;;;20.80;15.40;;;2.30;99.90;;;;;;5074265;28;20039;-70
2023/12/08 03:05:31;;;;;;;20.77;15.82;;;2.30;99.90;;;;;;5072962;28;20124;-70
2023/12/08 03:07:56;;;;;;;18.90;14.55;;;2.30;99.90;;;;;;5073807;28;20516;-70
2023/12/08 03:10:22;;;;;;;18.45;14.43;;;2.30;99.90;;;;;;5072589;28;20037;-70
2023/12/08 03:12:47;;;;;;;19.30;14.77;;;2.30;99.90;;;;;;5072580;28;20044;-70
2023/12/08 03:15:13;;;;;;;18.83;14.30;;;2.30;99.90;;;;;;5072784;28;20049;-70
2023/12/08 03:17:39;;;;;;;18.67;15.20;;;2.30;99.90;;;;;;5072410;28;20559;-70
2023/12/08 03:20:05;;;;;;;21.48;15.00;;;2.30;99.90;;;;;;5073871;28;20110;-70
2023/12/08 03:22:30;;;;;;;21.15;15.60;;;2.30;99.90;;;;;;5073587;28;20043;-70
2023/12/08 03:24:56;;;;;;;20.80;15.85;;;2.30;99.90;;;;;;5072428;28;20040;-70
2023/12/08 03:27:21;;;;;;;19.95;15.63;;;2.30;99.90;;;;;;5073863;28;20044;-70
2023/12/08 03:29:47;;;;;;;20.30;15.02;;;2.30;99.90;;;;;;5073375;28;20390;-70
2023/12/08 03:32:12;;;;;;;19.98;15.02;;;2.30;99.90;;;;;;5072281;28;20050;-70
2023/12/08 03:34:38;;;;;;;21.45;15.98;;;2.30;99.90;;;;;;5071947;28;20040;-70
2023/12/08 03:37:03;;;;;;;20.55;15.23;;;2.30;99.90;;;;;;5073591;28;20040;-70
2023/12/08 03:39:29;;;;;;;22.00;15.95;;;2.20;99.90;;;;;;5073602;28;20033;-70
2023/12/08 03:41:55;;;;;;;20.80;15.10;;;2.20;99.90;;;;;;5072135;28;20397;-70
2023/12/08 03:44:20;;;;;;;22.42;16.05;;;2.20;99.90;;;;;;5072059;28;20229;-70
2023/12/08 03:46:46;;;;;;;22.00;15.55;;;2.20;99.90;;;;;;5073311;28;20190;-70
2023/12/08 03:49:11;;;;;;;22.67;16.17;;;2.20;99.90;;;;;;5072044;28;20043;-70
2023/12/08 03:51:37;;;;;;;23.08;15.82;;;2.20;99.90;;;;;;5071913;28;20070;-70
2023/12/08 03:54:02;;;;;;;24.17;16.42;;;2.20;99.90;;;;;;5072236;28;20071;-70
2023/12/08 03:56:28;;;;;;;22.55;16.38;;;2.10;99.90;;;;;;5072162;28;20171;-70
2023/12/08 03:58:54;;;;;;;23.42;16.25;;;2.10;99.90;;;;;;5071935;28;20496;-70
2023/12/08 04:01:20;;;;;;;21.88;16.48;;;2.10;99.90;;;;;;5073317;28;20028;-70
2023/12/08 04:03:46;;;;;;;23.40;16.70;;;2.10;99.90;;;;;;5073064;28;20393;-70
2023/12/08 04:06:12;;;;;;;24.02;17.40;;;2.10;99.90;;;;;;5071826;28;20460;-70
2023/12/08 04:08:38;;;;;;;21.95;15.65;;;2.00;99.90;;;;;;5071842;28;20076;-70
2023/12/08 04:11:04;;;;;;;25.40;17.63;;;2.00;99.90;;;;;;5073257;28;20032;-70
2023/12/08 04:13:30;;;;;;;22.83;16.67;;;2.00;99.90;;;;;;5055383;28;20068;-71
2023/12/08 04:15:55;;;;;;;21.70;16.25;;;1.90;99.90;;;;;;5073275;28;20064;-71
2023/12/08 04:18:21;;;;;;;20.95;15.63;;;1.90;99.90;;;;;;5071671;28;20097;-70
2023/12/08 04:20:46;;;;;;;23.05;16.83;;;1.90;99.90;;;;;;5071948;28;20036;-70
2023/12/08 04:23:12;;;;;;;23.25;17.45;;;1.90;99.90;;;;;;5071586;28;20501;-70
2023/12/08 04:25:38;;;;;;;21.10;16.40;;;1.80;99.90;;;;;;5072068;28;20036;-70
2023/12/08 04:28:04;;;;;;;22.38;16.77;;;1.80;99.90;;;;;;5073154;28;20481;-70
2023/12/08 04:30:30;;;;;;;23.42;16.80;;;1.80;99.90;;;;;;5073103;28;20439;-70
2023/12/08 04:32:55;;;;;;;24.88;16.45;;;1.80;99.90;;;;;;5073115;28;20545;-70
2023/12/08 04:35:22;;;;;;;24.95;17.42;;;1.80;99.90;;;;;;5071860;28;20051;-70
2023/12/08 04:37:47;;;;;;;22.00;16.58;;;1.80;99.90;;;;;;5073019;28;20116;-70
2023/12/08 04:40:13;;;;;;;22.80;16.35;;;1.80;99.90;;;;;;5071729;28;20112;-70
2023/12/08 04:42:38;;;;;;;28.50;18.38;;;1.80;99.90;;;;;;5071561;28;20413;-70
2023/12/08 04:45:05;;;;;;;23.58;17.73;;;1.80;99.90;;;;;;5071483;28;20075;-70
2023/12/08 04:47:30;;;;;;;25.88;17.33;;;1.80;99.90;;;;;;5076738;28;20071;-70
2023/12/08 04:49:56;;;;;;;24.98;17.05;;;1.70;99.90;;;;;;5075287;28;20076;-70
2023/12/08 04:52:22;;;;;;;27.75;17.98;;;1.70;99.90;;;;;;5076720;28;20041;-70
2023/12/08 04:54:47;;;;;;;24.60;17.52;;;1.80;99.90;;;;;;5076430;28;20036;-70
2023/12/08 04:57:13;;;;;;;24.92;17.13;;;1.70;99.90;;;;;;5076635;28;20041;-70
2023/12/08 04:59:39;;;;;;;25.27;18.05;;;1.70;99.90;;;;;;5076620;28;20500;-70
2023/12/08 05:02:05;;;;;;;26.73;17.58;;;1.70;99.90;;;;;;5076610;28;20068;-70
2023/12/08 05:04:30;;;;;;;24.13;17.00;;;1.70;99.90;;;;;;5075311;28;20217;-70
2023/12/08 05:06:56;;;;;;;22.88;16.08;;;1.70;99.90;;;;;;5076486;28;20465;-70
2023/12/08 05:09:22;;;;;;;24.23;17.70;;;1.70;99.90;;;;;;5076366;28;20520;-70
2023/12/08 05:11:47;;;;;;;22.90;16.83;;;1.70;99.90;;;;;;5074900;28;20041;-70
2023/12/08 05:14:13;;;;;;;22.80;16.52;;;1.70;99.90;;;;;;5074859;28;20051;-70
2023/12/08 05:16:39;;;;;;;24.10;17.42;;;1.70;99.90;;;;;;5076259;28;20067;-70
2023/12/08 05:19:05;;;;;;;25.67;15.93;;;1.70;99.90;;;;;;5074778;28;20473;-70
2023/12/08 05:21:30;;;;;;;23.80;16.30;;;1.70;99.90;;;;;;5074765;28;20098;-71
2023/12/08 05:23:56;;;;;;;27.25;17.83;;;1.70;99.90;;;;;;5074738;28;20040;-71
2023/12/08 05:26:23;;;;;;;22.83;16.67;;;1.80;99.90;;;;;;5074868;28;20090;-70
2023/12/08 05:28:49;;;;;;;22.77;16.52;;;1.70;99.90;;;;;;5076452;28;20059;-70
2023/12/08 05:31:14;;;;;;;24.90;17.17;;;1.80;99.90;;;;;;5076010;28;20541;-70
2023/12/08 05:33:40;;;;;;;23.17;16.52;;;1.80;99.90;;;;;;5058205;28;20033;-70
2023/12/08 05:36:06;;;;;;;22.38;16.55;;;1.80;99.90;;;;;;5075730;28;20036;-70
2023/12/08 05:38:32;;;;;;;22.17;16.73;;;1.80;99.90;;;;;;5074299;28;20055;-71
2023/12/08 05:40:57;;;;;;;25.38;18.23;;;1.70;99.90;;;;;;5074332;28;20069;-70
2023/12/08 05:43:23;;;;;;;25.77;18.08;;;1.70;99.90;;;;;;5074353;28;20120;-70
2023/12/08 05:45:48;;;;;;;24.35;17.75;;;1.80;99.90;;;;;;5074325;28;20049;-70
2023/12/08 05:48:14;;;;;;;28.70;18.67;;;1.80;99.90;;;;;;5075785;28;20055;-70
2023/12/08 05:50:40;;;;;;;25.05;17.40;;;1.80;99.90;;;;;;5074388;28;20041;-70
2023/12/08 05:53:06;;;;;;;26.73;18.83;;;1.80;99.90;;;;;;5075696;28;20036;-70
2023/12/08 05:55:32;;;;;;;25.90;17.58;;;1.70;99.90;;;;;;5074082;28;20106;-70
2023/12/08 05:57:57;;;;;;;24.55;17.98;;;1.80;99.90;;;;;;5073968;28;20044;-70
2023/12/08 06:00:23;;;;;;;28.98;18.98;;;1.70;99.90;;;;;;5057259;28;20481;-70
2023/12/08 06:02:48;;;;;;;25.63;17.98;;;1.70;99.90;;;;;;5074000;28;20050;-70
2023/12/08 06:05:15;;;;;;;26.73;18.13;;;1.70;99.90;;;;;;5073942;28;20067;-70
2023/12/08 06:07:40;;;;;;;26.77;18.40;;;1.70;99.90;;;;;;5075115;28;20451;-70
2023/12/08 06:10:11;;;;;;;27.38;19.08;;;1.80;99.90;;;;;;5073777;28;20044;-70
2023/12/08 06:12:37;;;;;;;26.38;17.85;;;1.70;99.90;;;;;;5074070;28;20390;-70
2023/12/08 06:15:04;;;;;;;25.95;17.65;;;1.70;99.90;;;;;;5074983;28;20047;-70
2023/12/08 06:17:30;;;;;;;23.90;17.63;;;1.70;99.90;;;;;;5075175;28;20106;-70
2023/12/08 06:19:56;;;;;;;27.40;18.30;;;1.70;99.90;;;;;;5074157;28;20485;-70
2023/12/08 06:22:22;;;;;;;27.38;18.95;;;1.70;99.90;;;;;;5073401;28;20089;-70
2023/12/08 06:24:48;;;;;;;27.83;19.10;;;1.70;99.90;;;;;;5073604;28;20033;-70
2023/12/08 06:27:14;;;;;;;29.15;18.55;;;1.70;99.90;;;;;;5075007;28;20093;-70
2023/12/08 06:29:39;;;;;;;27.55;19.10;;;1.70;99.90;;;;;;5073651;28;20123;-70
2023/12/08 06:32:06;;;;;;;24.55;17.85;;;1.80;99.90;;;;;;5074905;28;20500;-70
2023/12/08 06:34:32;;;;;;;28.45;18.40;;;1.80;99.90;;;;;;5073366;28;20572;-70
2023/12/08 06:36:57;;;;;;;27.55;19.23;;;1.70;99.90;;;;;;5073206;28;20178;-69
2023/12/08 06:39:23;;;;;;;24.92;18.00;;;1.70;99.90;;;;;;5074723;28;20032;-70
2023/12/08 06:41:48;;;;;;;27.08;19.48;;;1.70;99.90;;;;;;5073479;28;20513;-70
2023/12/08 06:44:14;;;;;;;26.52;18.58;;;1.70;99.90;;;;;;5073197;28;20412;-70
2023/12/08 06:46:40;;;;;;;26.42;18.95;;;1.70;99.90;;;;;;5073096;28;20033;-70
2023/12/08 06:49:05;;;;;;;27.05;19.65;;;1.70;99.90;;;;;;5073075;28;20036;-70
2023/12/08 06:51:34;;;;;;;27.23;18.13;;;1.70;99.90;;;;;;5074453;28;20041;-70
2023/12/08 06:54:00;;;;;;;25.55;18.55;;;1.70;99.90;;;;;;5072975;28;20044;-70
2023/12/08 06:56:25;;;;;;;26.50;18.50;;;1.70;99.90;;;;;;5072849;28;20037;-70
2023/12/08 06:58:51;;;;;;;26.63;18.23;;;1.70;99.90;;;;;;5072883;28;20048;-70
2023/12/08 07:01:17;;;;;;;27.90;18.80;;;1.70;99.90;;;;;;5072764;28;20115;-70
2023/12/08 07:03:44;;;;;;;28.33;20.58;;;1.70;99.90;;;;;;5073133;28;20067;-70
2023/12/08 07:06:09;;;;;;;26.75;19.13;;;1.70;99.90;;;;;;5072680;28;20047;-70
2023/12/08 07:08:35;;;;;;;27.10;18.70;;;1.70;99.90;;;;;;5072399;28;20048;-70
2023/12/08 07:11:00;;;;;;;29.75;18.40;;;1.60;99.90;;;;;;5072938;28;20512;-70
2023/12/08 07:13:26;;;;;;;29.27;19.73;;;1.70;99.90;;;;;;5074065;28;20508;-70
2023/12/08 07:15:52;;;;;;;26.90;19.13;;;1.70;99.90;;;;;;5072797;28;20052;-70
2023/12/08 07:18:17;;;;;;;26.73;19.50;;;1.60;99.90;;;;;;5074119;28;20051;-70
2023/12/08 07:20:43;;;;;;;27.23;19.42;;;1.60;99.90;;;;;;5072353;28;20040;-70
2023/12/08 07:23:08;;;;;;;27.42;18.77;;;1.60;99.90;;;;;;5072340;28;20036;-70
2023/12/08 07:25:34;;;;;;;27.02;18.58;;;1.60;99.90;;;;;;5073818;28;20039;-70
2023/12/08 07:28:00;;;;;;;25.40;18.23;;;1.60;99.90;;;;;;5073857;28;20390;-70
2023/12/08 07:30:25;;;;;;;29.05;19.05;;;1.70;99.90;;;;;;5072263;28;20119;-70
2023/12/08 07:32:51;;;;;;;22.38;16.83;;;1.70;99.90;;;;;;5073753;28;20076;-70
2023/12/08 07:35:16;;;;;;;23.35;17.02;;;1.70;99.90;;;;;;5072235;28;20409;-70
2023/12/08 07:37:42;;;;;;;25.35;17.50;;;1.80;99.90;;;;;;5073744;28;20036;-70
2023/12/08 07:40:09;;;;;;;26.00;18.58;;;1.70;99.90;;;;;;5072637;28;20086;-70
2023/12/08 07:42:36;;;;;;;25.70;18.65;;;1.70;99.90;;;;;;5055660;28;20043;-70
2023/12/08 07:45:06;;;;;;;26.40;18.30;;;1.80;99.90;;;;;;5073587;28;20045;-70
2023/12/08 07:47:32;;;;;;;26.35;18.35;;;1.80;99.90;;;;;;5071987;28;20048;-70
2023/12/08 07:49:58;;;;;;;24.73;18.35;;;1.80;99.90;;;;;;5073503;28;20047;-70
2023/12/08 07:52:24;;;;;;;28.00;18.58;;;1.70;99.90;;;;;;5071995;28;20052;-70
2023/12/08 07:54:50;;;;;;;26.70;18.25;;;1.70;99.90;;;;;;5073492;28;20033;-70
2023/12/08 07:57:15;;;;;;;27.85;18.75;;;1.80;99.90;;;;;;5071855;28;20501;-70
2023/12/08 07:59:41;;;;;;;28.25;18.98;;;1.70;99.90;;;;;;5072121;28;20037;-70
2023/12/08 08:02:07;;;;;;;26.48;18.63;;;1.80;99.90;;;;;;5071913;28;20397;-70
2023/12/08 08:04:32;;;;;;;26.58;18.40;;;1.80;99.90;;;;;;5072162;28;20119;-70
2023/12/08 08:06:58;;;;;;;27.42;19.50;;;1.80;99.90;;;;;;5073495;28;20089;-70
2023/12/08 08:09:23;;;;;;;27.55;19.00;;;1.80;99.90;;;;;;5073284;28;20032;-71
2023/12/08 08:11:49;;;;;;;31.38;19.52;;;1.80;99.90;;;;;;5072338;28;20040;-71
2023/12/08 08:14:15;;;;;;;25.85;18.73;;;1.80;99.90;;;;;;5073297;28;20486;-71
2023/12/08 08:16:41;;;;;;;29.42;19.50;;;1.90;99.90;;;;;;5073026;28;20041;-71
2023/12/08 08:19:06;;;;;;;29.27;18.88;;;1.90;99.90;;;;;;5071996;28;20459;-71
2023/12/08 08:21:32;;;;;;;26.70;19.05;;;1.80;99.90;;;;;;5074101;28;20409;-71
2023/12/08 08:23:57;;;;;;;22.67;16.92;;;1.90;99.90;;;;;;5075993;28;20036;-70
2023/12/08 08:26:24;;;;;;;28.33;18.55;;;1.90;99.90;;;;;;5075807;28;20116;-70
2023/12/08 08:28:49;;;;;;;26.00;18.55;;;1.90;99.90;;;;;;5075789;28;20045;-70
2023/12/08 08:31:19;;;;;;;25.38;18.00;;;1.90;99.90;;;;;;5058997;28;20036;-70
2023/12/08 08:33:44;;;;;;;27.20;18.05;;;1.90;99.90;;;;;;5075685;28;20056;-70
2023/12/08 08:36:11;;;;;;;28.75;18.05;;;1.90;99.90;;;;;;5077159;28;20040;-70
2023/12/08 08:38:37;;;;;;;26.23;18.15;;;1.90;99.90;;;;;;5075496;28;20044;-70
2023/12/08 08:41:03;;;;;;;26.55;18.70;;;1.90;99.90;;;;;;5075424;28;20082;-70
2023/12/08 08:43:29;;;;;;;26.67;18.08;;;1.90;99.90;;;;;;5075514;28;20036;-69
2023/12/08 08:45:55;;;;;;;25.45;17.80;;;1.90;99.90;;;;;;5058709;28;20090;-69
2023/12/08 08:48:20;;;;;;;25.23;17.15;;;1.90;99.90;;;;;;5076914;28;20045;-70
2023/12/08 08:50:48;;;;;;;25.15;18.20;;;1.90;99.90;;;;;;5075510;28;20458;-70
2023/12/08 08:53:14;;;;;;;26.15;17.33;;;1.90;99.90;;;;;;5076795;28;20044;-70
2023/12/08 08:55:42;;;;;;;24.25;16.65;;;2.00;99.90;;;;;;5076024;28;20056;-70
2023/12/08 08:58:07;;;;;;;25.98;17.75;;;2.00;99.90;;;;;;5075446;28;20040;-70
2023/12/08 09:00:34;;;;;;;22.02;16.63;;;2.00;99.90;;;;;;5075030;28;20040;-70
2023/12/08 09:03:01;;;;;;;25.35;17.38;;;2.00;99.90;;;;;;5075071;28;20085;-70
2023/12/08 09:05:27;;;;;;;23.75;16.98;;;2.00;99.90;;;;;;5076554;28;20055;-70
2023/12/08 09:07:53;;;;;;;24.52;17.60;;;2.00;99.90;;;;;;5076479;28;20052;-70
2023/12/08 09:10:19;;;;;;;25.67;17.17;;;2.00;99.90;;;;;;5075511;28;20040;-70
2023/12/08 09:12:44;;;;;;;25.42;18.65;;;2.00;99.90;;;;;;5075074;28;20044;-70
2023/12/08 09:15:11;;;;;;;27.23;18.20;;;2.10;99.90;;;;;;5076530;28;20040;-70
2023/12/08 09:17:37;;;;;;;26.88;17.38;;;2.10;99.90;;;;;;5076924;28;20123;-70
2023/12/08 09:20:07;;;;;;;25.65;17.30;;;2.00;99.90;;;;;;5074735;28;20123;-70
2023/12/08 09:22:33;;;;;;;25.35;17.77;;;2.10;99.90;;;;;;5075266;28;20075;-70
2023/12/08 09:24:59;;;;;;;24.98;17.80;;;2.00;99.90;;;;;;5075295;28;20040;-70
2023/12/08 09:27:24;;;;;;;28.75;17.63;;;2.00;99.90;;;;;;5075009;28;20445;-70
2023/12/08 09:29:50;;;;;;;26.83;18.48;;;2.00;99.90;;;;;;5075228;28;20040;-70
2023/12/08 09:32:15;;;;;;;25.55;18.40;;;2.10;99.90;;;;;;5074466;28;20096;-70
2023/12/08 09:34:41;;;;;;;26.50;18.13;;;2.10;99.90;;;;;;5076460;28;20072;-70
2023/12/08 09:37:07;;;;;;;24.83;17.70;;;2.10;99.90;;;;;;5074653;28;20041;-70
2023/12/08 09:39:32;;;;;;;24.25;17.90;;;2.10;99.90;;;;;;5075545;28;20409;-70
2023/12/08 09:42:03;;;;;;;24.48;17.48;;;2.10;99.90;;;;;;5075903;28;20493;-70
2023/12/08 09:44:29;;;;;;;26.67;18.23;;;2.10;99.90;;;;;;5074625;28;20040;-70
2023/12/08 09:46:57;;;;;;;28.05;18.00;;;2.10;99.90;;;;;;5057608;28;20048;-70
2023/12/08 09:49:36;;;;;;;26.00;18.38;;;2.10;99.90;;;;;;5074472;28;20041;-70
2023/12/08 09:52:02;;;;;;;26.60;18.15;;;2.10;99.90;;;;;;5075773;28;20054;-70
2023/12/08 09:54:29;;;;;;;26.48;18.55;;;2.10;99.90;;;;;;5074416;28;20040;-71
2023/12/08 09:56:55;;;;;;;25.52;18.48;;;2.10;99.90;;;;;;5074034;28;20051;-71
2023/12/08 09:59:23;;;;;;;27.90;19.30;;;2.10;99.90;;;;;;5074026;28;20039;-70
2023/12/08 10:01:49;;;;;;;27.35;18.98;;;2.10;99.90;;;;;;5074329;28;20111;-70
2023/12/08 10:04:15;;;;;;;31.88;18.70;;;2.20;99.90;;;;;;5075498;28;20426;-70
2023/12/08 10:06:40;;;;;;;26.65;19.50;;;2.20;99.90;;;;;;5057549;28;20036;-70
2023/12/08 10:09:07;;;;;;;26.20;18.85;;;2.10;99.90;;;;;;5075469;28;20543;-70
2023/12/08 10:11:33;;;;;;;28.13;19.20;;;2.20;99.90;;;;;;5074041;28;20037;-69
2023/12/08 10:14:00;;;;;;;31.05;20.38;;;2.20;99.90;;;;;;5073794;28;20028;-70
2023/12/08 10:16:26;;;;;;;28.27;18.95;;;2.20;99.90;;;;;;5073655;28;20485;-70
2023/12/08 10:19:06;;;;;;;27.45;19.13;;;2.20;99.90;;;;;;5073963;28;20044;-70
2023/12/08 10:21:32;;;;;;;28.23;19.13;;;2.20;99.90;;;;;;5074986;28;20474;-70
2023/12/08 10:24:02;;;;;;;28.52;19.45;;;2.20;99.90;;;;;;5057151;28;20123;-70
2023/12/08 10:26:32;;;;;;;29.65;19.85;;;2.30;99.90;;;;;;5074171;28;20041;-71
2023/12/08 10:28:58;;;;;;;31.63;20.60;;;2.20;99.90;;;;;;5073688;28;20041;-70
2023/12/08 10:31:25;;;;;;;33.38;20.85;;;2.30;99.90;;;;;;5073700;28;20040;-70
2023/12/08 10:33:51;;;;;;;28.00;20.92;;;2.30;99.90;;;;;;5056729;28;20123;-70
2023/12/08 10:36:17;;;;;;;32.10;20.73;;;2.30;99.90;;;;;;5073308;28;20141;-70
2023/12/08 10:38:43;;;;;;;30.30;20.40;;;2.20;99.90;;;;;;5074684;28;20044;-70
2023/12/08 10:41:10;;;;;;;33.42;21.20;;;2.30;99.90;;;;;;5073474;28;20041;-70
2023/12/08 10:43:39;;;;;;;33.63;21.75;;;2.30;99.90;;;;;;5073542;28;20409;-70
2023/12/08 10:46:06;;;;;;;34.35;21.10;;;2.30;99.90;;;;;;5073427;28;20036;-70
2023/12/08 10:48:33;;;;;;;33.67;22.98;;;2.30;99.90;;;;;;5073058;28;20481;-71
2023/12/08 10:50:59;;;;;;;38.03;23.50;;;2.30;99.90;;;;;;5072992;28;20127;-71
2023/12/08 10:53:25;;;;;;;44.25;23.92;;;2.30;99.90;;;;;;5074481;28;20123;-70
2023/12/08 10:56:03;;;;;;;39.50;23.30;;;2.30;99.90;;;;;;5073367;28;20062;-71
2023/12/08 10:58:32;;;;;;;45.30;24.05;;;2.40;99.90;;;;;;5074370;28;20037;-71
2023/12/08 11:00:58;;;;;;;38.38;22.05;;;2.30;99.90;;;;;;5072929;28;20493;-71
2023/12/08 11:03:34;;;;;;;46.25;24.52;;;2.40;99.90;;;;;;5073111;28;20044;-71
2023/12/08 11:06:09;;;;;;;48.38;25.98;;;2.40;99.90;;;;;;5072758;28;20044;-71
2023/12/08 11:08:35;;;;;;;48.60;25.58;;;2.40;99.90;;;;;;5072954;28;20554;-71
2023/12/08 11:11:04;;;;;;;47.90;25.45;;;2.40;99.90;;;;;;5072650;28;20044;-71
2023/12/08 11:13:37;;;;;;;46.17;25.05;;;2.40;99.90;;;;;;5074444;28;20075;-71
2023/12/08 11:16:15;;;;;;;;;;;2.50;99.90;;;;;;5073379;28;20033;-71
2023/12/08 11:18:41;;;;;;;48.58;25.55;;;2.50;99.90;;;;;;5073989;28;19920;-71
2023/12/08 11:21:09;;;;;;;49.42;24.27;;;2.40;99.90;;;;;;5074168;28;20111;-71
2023/12/08 11:23:37;;;;;;;45.05;23.98;;;2.50;99.90;;;;;;5072390;28;20045;-70
2023/12/08 11:26:11;;;;;;;49.80;25.52;;;2.50;99.90;;;;;;5072278;28;20584;-71
2023/12/08 11:28:56;;;;;;;51.83;25.70;;;2.50;99.90;;;;;;5072693;28;20083;-71
2023/12/08 11:31:33;;;;;;;47.15;24.58;;;2.60;99.90;;;;;;5072531;28;20037;-71
2023/12/08 11:34:10;;;;;;;48.97;25.50;;;2.60;99.90;;;;;;5073860;28;20044;-71
2023/12/08 11:36:42;;;;;;;53.22;26.98;;;2.60;99.90;;;;;;5073724;28;20046;-71
2023/12/08 11:39:47;;;;;;;50.50;25.98;;;2.60;99.90;;;;;;5072311;28;20033;-71
2023/12/08 11:42:18;;;;;;;53.42;26.17;;;2.60;99.90;;;;;;5072156;28;20493;-71
2023/12/08 11:44:48;;;;;;;46.88;25.67;;;2.60;99.90;;;;;;5073466;28;20488;-71
2023/12/08 11:47:17;;;;;;;50.17;26.27;;;2.60;99.90;;;;;;5073638;28;20045;-70
2023/12/08 11:49:44;;;;;;;46.45;25.90;;;2.60;99.90;;;;;;5071983;28;20040;-70
2023/12/08 11:52:29;;;;;;;42.33;24.15;;;2.60;99.90;;;;;;5073243;28;20490;-70
2023/12/08 11:55:07;;;;;;;44.80;25.58;;;2.60;99.90;;;;;;5073410;28;20036;-70
2023/12/08 11:57:36;;;;;;;46.80;25.92;;;2.60;99.90;;;;;;5071925;28;20036;-70
2023/12/08 12:00:04;;;;;;;48.13;25.92;;;2.60;99.90;;;;;;5071836;28;20455;-70
2023/12/08 12:02:30;;;;;;;48.65;25.48;;;2.60;99.90;;;;;;5071955;28;20044;-70
2023/12/08 12:04:56;;;;;;;51.35;26.10;;;2.60;99.90;;;;;;5071883;28;20040;-70
2023/12/08 12:07:22;;;;;;;45.85;26.17;;;2.70;99.90;;;;;;5073396;28;20036;-70
2023/12/08 12:09:50;;;;;;;48.15;26.48;;;2.60;99.90;;;;;;5073363;28;20043;-70
2023/12/08 12:12:24;;;;;;;48.83;25.25;;;2.70;99.90;;;;;;5073052;28;20044;-70
2023/12/08 12:14:54;;;;;;;52.05;27.48;;;2.60;99.90;;;;;;5073343;28;20071;-70
2023/12/08 12:17:20;;;;;;;56.03;29.98;;;2.70;99.90;;;;;;5072860;28;20501;-70
2023/12/08 12:19:47;;;;;;;53.95;26.52;;;2.70;99.90;;;;;;5072265;28;20066;-71
2023/12/08 12:22:14;;;;;;;52.85;26.73;;;2.70;99.90;;;;;;5072873;28;20173;-71
2023/12/08 12:24:41;;;;;;;45.00;25.17;;;2.70;99.90;;;;;;5071704;28;20037;-71
2023/12/08 12:27:06;;;;;;;51.33;27.88;;;2.70;99.90;;;;;;5073205;28;20036;-71
2023/12/08 12:29:33;;;;;;;50.60;26.30;;;2.70;99.90;;;;;;5073087;28;20044;-71
2023/12/08 12:31:59;;;;;;;49.10;26.02;;;2.80;99.90;;;;;;5071655;28;20040;-71
2023/12/08 12:34:25;;;;;;;48.45;25.08;;;2.80;99.90;;;;;;5071822;28;20117;-71